Time;durP1;ratioP1;P1;durP2;ratioP2;P2;SDS_P1;SDS_P2;PMS_P1;PMS_P2;Temp;Humidity;BMP_temperature;BMP_pressure;BME280_temperature;BME280_humidity;BME280_pressure;Samples;Min_cycle;Max_cycle;Signal;HPM_P1;HPM_P2
2023/10/15 00:00:13;;;;;;;6.22;1.10;;;10.10;99.90;;;;;;4918487;29;20036;-70
2023/10/15 00:02:41;;;;;;;4.90;1.08;;;10.20;99.90;;;;;;4909815;29;20024;-70
2023/10/15 00:05:12;;;;;;;5.85;1.45;;;10.20;99.90;;;;;;4913249;29;20036;-70
2023/10/15 00:07:39;;;;;;;5.55;1.08;;;10.20;99.90;;;;;;4932926;29;20028;-70
2023/10/15 00:10:17;;;;;;;5.47;0.77;;;10.30;99.90;;;;;;4915991;29;20040;-70
2023/10/15 00:12:48;;;;;;;1.25;0.75;;;10.50;99.90;;;;;;4928342;29;20544;-70
2023/10/15 00:15:19;;;;;;;6.70;0.95;;;10.50;99.90;;;;;;4921260;29;20070;-70
2023/10/15 00:17:46;;;;;;;5.07;0.88;;;10.50;99.90;;;;;;4932660;29;20448;-69
2023/10/15 00:20:16;;;;;;;1.13;0.80;;;10.50;99.90;;;;;;4927442;29;20032;-69
2023/10/15 00:22:45;;;;;;;4.30;1.20;;;10.60;99.90;;;;;;4923415;29;20102;-69
2023/10/15 00:25:15;;;;;;;1.60;0.90;;;10.60;99.90;;;;;;4921253;29;20110;-69
2023/10/15 00:27:42;;;;;;;2.58;1.10;;;10.60;99.90;;;;;;4924560;29;20397;-69
2023/10/15 00:30:19;;;;;;;4.18;1.10;;;10.60;99.90;;;;;;4926150;29;20496;-69
2023/10/15 00:32:46;;;;;;;7.32;0.93;;;10.60;99.90;;;;;;4918594;29;20024;-69
2023/10/15 00:35:14;;;;;;;6.47;1.00;;;10.60;99.90;;;;;;4900318;29;20036;-70
2023/10/15 00:37:40;;;;;;;6.53;0.85;;;10.50;99.90;;;;;;4895794;29;20064;-70
2023/10/15 00:40:18;;;;;;;2.38;1.00;;;10.20;99.90;;;;;;4908957;29;20039;-70
2023/10/15 00:42:45;;;;;;;1.83;0.77;;;10.10;99.90;;;;;;4928226;29;20034;-70
2023/10/15 00:45:17;;;;;;;9.30;1.50;;;9.90;99.90;;;;;;4923576;29;20489;-70
2023/10/15 00:47:51;;;;;;;4.80;1.35;;;9.90;99.90;;;;;;4926803;29;20385;-69
2023/10/15 00:50:18;;;;;;;7.22;1.50;;;9.70;99.90;;;;;;4916131;29;20040;-69
2023/10/15 00:52:44;;;;;;;4.20;1.02;;;9.60;99.90;;;;;;4926715;29;20072;-69
2023/10/15 00:55:16;;;;;;;4.07;0.63;;;9.60;99.90;;;;;;4899217;29;20040;-69
2023/10/15 00:57:46;;;;;;;3.85;1.27;;;9.50;99.90;;;;;;4927697;29;20629;-69
2023/10/15 01:02:57;;;;;;;3.45;0.70;;;9.20;99.90;;;;;;4932667;29;20039;-69
2023/10/15 01:05:26;;;;;;;4.70;1.50;;;9.00;99.90;;;;;;4909654;29;20067;-69
2023/10/15 01:07:54;;;;;;;6.70;1.25;;;8.60;99.90;;;;;;4913364;29;20051;-70
2023/10/15 01:10:37;;;;;;;3.00;1.08;;;8.20;99.90;;;;;;4918027;29;20044;-70
2023/10/15 01:13:39;;;;;;;6.55;1.15;;;7.90;99.90;;;;;;4934599;29;20046;-70
2023/10/15 01:16:03;;;;;;;1.38;1.02;;;7.90;99.90;;;;;;4923616;29;20052;-69
2023/10/15 01:18:29;;;;;;;6.10;1.67;;;7.90;99.90;;;;;;4919079;29;20033;-70
2023/10/15 01:20:54;;;;;;;7.63;1.63;;;8.00;99.90;;;;;;4933001;29;20054;-69
2023/10/15 01:23:30;;;;;;;6.65;1.40;;;8.10;99.90;;;;;;4923151;29;20523;-69
2023/10/15 01:26:00;;;;;;;8.20;2.15;;;8.10;99.90;;;;;;4935927;29;20029;-69
2023/10/15 01:28:36;;;;;;;5.20;1.43;;;8.20;99.90;;;;;;4932009;29;20047;-69
2023/10/15 01:31:06;;;;;;;2.90;1.27;;;8.40;99.90;;;;;;4939913;29;20453;-70
2023/10/15 01:33:46;;;;;;;0.63;0.63;;;8.40;99.90;;;;;;4930292;29;20056;-69
2023/10/15 01:36:18;;;;;;;1.13;0.82;;;8.50;99.90;;;;;;4934643;29;20492;-69
2023/10/15 01:38:44;;;;;;;1.85;0.70;;;8.60;99.90;;;;;;4926941;29;20052;-69
2023/10/15 01:41:13;;;;;;;1.67;1.15;;;8.70;99.90;;;;;;4927848;29;20031;-69
2023/10/15 01:43:46;;;;;;;3.20;1.27;;;8.70;99.90;;;;;;4911137;29;20055;-70
2023/10/15 01:46:23;;;;;;;5.55;0.98;;;8.80;99.90;;;;;;4931208;29;20039;-70
2023/10/15 01:48:49;;;;;;;2.08;0.88;;;8.90;99.90;;;;;;4925613;29;20037;-69
2023/10/15 01:51:16;;;;;;;5.32;1.70;;;9.00;99.90;;;;;;4928836;29;20039;-69
2023/10/15 01:53:45;;;;;;;7.30;1.60;;;9.00;99.90;;;;;;4938410;28;20524;-69
2023/10/15 01:56:17;;;;;;;5.50;1.23;;;9.00;99.90;;;;;;4939154;29;20039;-70
2023/10/15 01:58:44;;;;;;;2.67;1.00;;;9.10;99.90;;;;;;4925278;29;20122;-69
2023/10/15 02:01:31;;;;;;;1.65;0.68;;;9.10;99.90;;;;;;4919277;29;20067;-69
2023/10/15 02:03:57;;;;;;;4.60;1.60;;;9.10;99.90;;;;;;4914176;29;20119;-70
2023/10/15 02:06:25;;;;;;;2.80;1.00;;;9.10;99.90;;;;;;4917105;29;20027;-70
2023/10/15 02:08:51;;;;;;;1.17;0.90;;;8.90;99.90;;;;;;4922142;29;20055;-69
2023/10/15 02:11:24;;;;;;;1.40;1.05;;;8.80;99.90;;;;;;4926975;29;20043;-69
2023/10/15 02:13:51;;;;;;;2.50;0.82;;;8.80;99.90;;;;;;4922695;29;20029;-70
2023/10/15 02:16:39;;;;;;;2.63;0.98;;;8.70;99.90;;;;;;4948221;29;20035;-70
2023/10/15 02:19:07;;;;;;;2.10;1.38;;;8.80;99.90;;;;;;4927837;29;20052;-69
2023/10/15 02:21:34;;;;;;;1.40;0.50;;;8.80;99.90;;;;;;4919675;29;20031;-69
2023/10/15 02:24:08;;;;;;;1.15;0.77;;;8.70;99.90;;;;;;4909345;29;20020;-69
2023/10/15 02:26:35;;;;;;;2.30;1.08;;;8.70;99.90;;;;;;4920966;29;20402;-69
2023/10/15 02:30:00;;;;;;;4.38;1.40;;;8.60;99.90;;;;;;4917119;29;20119;-69
2023/10/15 02:31:58;;;;;;;5.30;0.98;;;8.50;99.90;;;;;;4922950;29;20046;-69
2023/10/15 02:34:27;;;;;;;4.30;1.20;;;8.60;99.90;;;;;;4928431;29;20028;-69
2023/10/15 02:36:54;;;;;;;3.30;1.02;;;8.60;99.90;;;;;;4934868;29;20035;-70
2023/10/15 02:39:22;;;;;;;4.75;1.85;;;8.70;99.90;;;;;;4915391;29;20497;-70
2023/10/15 02:41:48;;;;;;;3.05;1.30;;;8.50;99.90;;;;;;4922731;29;20040;-70
2023/10/15 02:44:14;;;;;;;3.42;1.25;;;8.50;99.90;;;;;;4922930;29;20056;-69
2023/10/15 02:46:48;;;;;;;3.78;1.58;;;8.60;99.90;;;;;;4912720;29;20063;-69
2023/10/15 02:49:17;;;;;;;3.08;1.10;;;8.60;99.90;;;;;;4919675;29;20032;-70
2023/10/15 02:51:45;;;;;;;1.08;0.80;;;8.70;99.90;;;;;;4933963;29;20035;-70
2023/10/15 02:54:18;;;;;;;1.38;0.95;;;8.80;99.90;;;;;;4917304;29;20142;-70
2023/10/15 02:56:47;;;;;;;4.28;1.33;;;8.80;99.90;;;;;;4930846;29;20039;-70
2023/10/15 02:59:16;;;;;;;4.03;1.52;;;8.90;99.90;;;;;;4917271;29;20031;-70
2023/10/15 03:01:45;;;;;;;2.67;1.30;;;8.80;99.90;;;;;;4928899;29;20063;-70
2023/10/15 03:04:11;;;;;;;7.28;1.00;;;8.90;99.90;;;;;;4925208;29;20035;-70
2023/10/15 03:06:41;;;;;;;1.58;1.05;;;8.80;99.90;;;;;;4914716;29;20122;-69
2023/10/15 03:09:11;;;;;;;4.57;1.45;;;8.90;99.90;;;;;;4908498;29;20043;-70
2023/10/15 03:11:38;;;;;;;5.13;1.33;;;9.00;99.90;;;;;;4917924;29;20066;-70
2023/10/15 03:14:06;;;;;;;2.17;1.33;;;8.90;99.90;;;;;;4920944;29;20034;-70
2023/10/15 03:16:33;;;;;;;3.38;1.52;;;8.90;99.90;;;;;;4927537;29;20067;-70
2023/10/15 03:19:18;;;;;;;2.15;0.95;;;9.00;99.90;;;;;;4905180;29;20083;-70
2023/10/15 03:21:45;;;;;;;5.53;1.42;;;8.90;99.90;;;;;;4918723;29;20076;-69
2023/10/15 03:24:14;;;;;;;8.70;1.25;;;8.90;99.90;;;;;;4910356;29;20542;-69
2023/10/15 03:26:47;;;;;;;1.25;0.98;;;9.00;99.90;;;;;;4925165;29;20038;-70
2023/10/15 03:29:15;;;;;;;2.17;1.15;;;9.00;99.90;;;;;;4925358;29;20063;-70
2023/10/15 03:31:48;;;;;;;4.13;1.77;;;9.10;99.90;;;;;;4934228;29;20039;-70
2023/10/15 03:34:17;;;;;;;3.83;1.27;;;9.10;99.90;;;;;;4916321;29;20118;-70
2023/10/15 03:36:47;;;;;;;3.22;1.15;;;9.00;99.90;;;;;;4912563;29;20031;-70
2023/10/15 03:39:15;;;;;;;3.63;1.58;;;9.00;99.90;;;;;;4900595;29;20039;-70
2023/10/15 03:41:43;;;;;;;1.55;1.00;;;9.00;99.90;;;;;;4913153;29;20416;-69
2023/10/15 03:44:11;;;;;;;3.53;1.23;;;8.80;99.90;;;;;;4923355;29;20047;-69
2023/10/15 03:46:38;;;;;;;3.75;1.40;;;8.70;99.90;;;;;;4928719;29;20481;-69
2023/10/15 03:49:07;;;;;;;3.35;1.15;;;8.70;99.90;;;;;;4920428;29;20028;-70
2023/10/15 03:51:40;;;;;;;2.42;1.13;;;8.70;99.90;;;;;;4922992;29;20043;-70
2023/10/15 03:54:08;;;;;;;5.53;1.77;;;8.60;99.90;;;;;;4921104;29;20028;-69
2023/10/15 03:56:34;;;;;;;11.55;1.73;;;8.50;99.90;;;;;;4921264;29;20111;-69
2023/10/15 03:59:03;;;;;;;1.80;1.02;;;8.50;99.90;;;;;;4933650;29;20108;-69
2023/10/15 04:01:30;;;;;;;1.55;1.13;;;8.50;99.90;;;;;;4925770;29;20059;-69
2023/10/15 04:03:56;;;;;;;4.47;1.75;;;8.50;99.90;;;;;;4923781;29;20032;-69
2023/10/15 04:06:22;;;;;;;3.35;1.45;;;8.40;99.90;;;;;;4924740;29;20047;-69
2023/10/15 04:11:44;;;;;;;1.70;0.95;;;8.40;99.90;;;;;;4925915;29;20098;-69
2023/10/15 04:14:26;;;;;;;11.55;1.65;;;8.40;99.90;;;;;;4920802;29;20501;-69
2023/10/15 04:16:52;;;;;;;4.40;1.00;;;8.50;99.90;;;;;;4922387;29;20139;-69
2023/10/15 04:19:18;;;;;;;3.42;1.23;;;8.50;99.90;;;;;;4914988;29;20126;-69
2023/10/15 04:21:44;;;;;;;8.98;1.30;;;8.40;99.90;;;;;;4928935;29;20405;-70
2023/10/15 04:24:18;;;;;;;1.88;1.40;;;8.40;99.90;;;;;;4930427;29;20082;-70
2023/10/15 04:26:48;;;;;;;4.47;1.40;;;8.40;99.90;;;;;;4942758;29;20042;-69
2023/10/15 04:29:17;;;;;;;5.13;0.98;;;8.40;99.90;;;;;;4923404;29;20449;-69
2023/10/15 04:31:45;;;;;;;5.70;2.65;;;8.40;99.90;;;;;;4928128;29;20028;-70
2023/10/15 04:34:17;;;;;;;3.65;1.35;;;8.40;99.90;;;;;;4921652;29;20387;-70
2023/10/15 04:36:45;;;;;;;7.60;1.15;;;8.40;99.90;;;;;;4928083;29;20059;-70
2023/10/15 04:39:12;;;;;;;2.70;1.40;;;8.30;99.90;;;;;;4928957;29;20031;-70
2023/10/15 04:41:40;;;;;;;2.50;1.02;;;8.30;99.90;;;;;;4942290;29;20039;-70
2023/10/15 04:44:11;;;;;;;7.07;1.38;;;8.30;99.90;;;;;;4931476;29;20031;-70
2023/10/15 04:46:41;;;;;;;3.28;1.30;;;8.20;99.90;;;;;;4911930;29;20040;-70
2023/10/15 04:49:07;;;;;;;2.42;1.02;;;8.10;99.90;;;;;;4925744;29;20086;-70
2023/10/15 04:51:42;;;;;;;2.08;0.88;;;8.20;99.90;;;;;;4924675;29;20038;-70
2023/10/15 04:54:12;;;;;;;6.15;1.17;;;8.20;99.90;;;;;;4933222;29;20028;-71
2023/10/15 04:56:38;;;;;;;1.98;0.95;;;8.30;99.90;;;;;;4923423;29;20027;-70
2023/10/15 04:59:04;;;;;;;2.40;1.27;;;8.20;99.90;;;;;;4935157;29;20044;-70
2023/10/15 05:01:33;;;;;;;4.05;1.27;;;8.20;99.90;;;;;;4931565;29;20083;-70
2023/10/15 05:04:01;;;;;;;5.53;1.48;;;8.20;99.90;;;;;;4932009;29;20244;-70
2023/10/15 05:06:28;;;;;;;3.63;1.67;;;8.20;99.90;;;;;;4924985;29;20095;-70
2023/10/15 05:08:55;;;;;;;6.90;1.20;;;8.20;99.90;;;;;;4929680;29;20047;-70
2023/10/15 05:11:24;;;;;;;18.27;1.70;;;8.20;99.90;;;;;;4920627;29;20036;-69
2023/10/15 05:13:51;;;;;;;3.30;1.10;;;8.20;99.90;;;;;;4935968;29;20476;-70
2023/10/15 05:16:18;;;;;;;11.07;1.05;;;8.20;99.90;;;;;;4927403;29;20530;-70
2023/10/15 05:18:47;;;;;;;1.88;1.08;;;8.20;99.90;;;;;;4934796;29;20046;-70
2023/10/15 05:21:13;;;;;;;6.80;1.45;;;8.20;99.90;;;;;;4925479;29;20388;-70
2023/10/15 05:23:40;;;;;;;4.07;1.33;;;8.20;99.90;;;;;;4923578;29;20032;-70
2023/10/15 05:26:05;;;;;;;7.47;1.40;;;8.10;99.90;;;;;;4926987;29;20509;-70
2023/10/15 05:28:31;;;;;;;3.72;0.90;;;8.20;99.90;;;;;;4923353;29;20112;-69
2023/10/15 05:30:58;;;;;;;2.83;1.10;;;8.20;99.90;;;;;;4926276;29;20059;-70
2023/10/15 05:33:24;;;;;;;3.50;0.98;;;8.10;99.90;;;;;;4924758;29;20036;-69
2023/10/15 05:35:50;;;;;;;3.72;1.92;;;8.20;99.90;;;;;;4924882;29;20090;-70
2023/10/15 05:38:19;;;;;;;1.58;0.90;;;8.20;99.90;;;;;;4923973;29;20032;-69
2023/10/15 05:40:45;;;;;;;3.67;1.00;;;8.20;99.90;;;;;;4916940;29;20370;-69
2023/10/15 05:43:11;;;;;;;2.30;1.33;;;8.20;99.90;;;;;;4933148;29;20051;-69
2023/10/15 05:45:37;;;;;;;3.13;1.40;;;8.20;99.90;;;;;;4925414;29;20140;-69
2023/10/15 05:48:03;;;;;;;3.05;1.52;;;8.30;99.90;;;;;;4932377;29;20067;-69
2023/10/15 05:50:29;;;;;;;6.88;1.10;;;8.30;99.90;;;;;;4916826;29;20160;-69
2023/10/15 05:52:55;;;;;;;1.50;0.90;;;8.40;99.90;;;;;;4923167;29;20480;-70
2023/10/15 05:55:21;;;;;;;7.18;1.20;;;8.40;99.90;;;;;;4916892;29;20039;-73
2023/10/15 05:57:47;;;;;;;8.45;1.27;;;8.50;99.90;;;;;;4928438;29;20035;-73
2023/10/15 06:00:26;;;;;;;4.97;1.10;;;8.60;99.90;;;;;;4943148;29;20476;-73
2023/10/15 06:02:56;;;;;;;2.30;0.80;;;8.60;99.90;;;;;;4932798;28;20067;-72
2023/10/15 06:05:22;;;;;;;1.77;1.10;;;8.70;99.90;;;;;;4929976;29;20417;-73
2023/10/15 06:07:48;;;;;;;4.38;1.33;;;8.60;99.90;;;;;;4930232;29;20503;-73
2023/10/15 06:10:15;;;;;;;2.55;1.05;;;8.60;99.90;;;;;;4925629;29;20035;-73
2023/10/15 06:12:42;;;;;;;2.45;0.90;;;8.70;99.90;;;;;;4935262;29;20034;-73
2023/10/15 06:15:09;;;;;;;4.53;2.13;;;8.70;99.90;;;;;;4919997;29;20438;-73
2023/10/15 06:17:36;;;;;;;2.88;0.82;;;8.70;99.90;;;;;;4934099;29;20523;-73
2023/10/15 06:20:14;;;;;;;2.42;1.30;;;8.70;99.90;;;;;;4927614;29;20035;-73
2023/10/15 06:22:45;;;;;;;3.13;0.93;;;8.70;99.90;;;;;;4935437;29;20488;-73
2023/10/15 06:25:13;;;;;;;6.53;1.05;;;8.80;99.90;;;;;;4903926;29;20032;-73
2023/10/15 06:27:40;;;;;;;1.20;0.65;;;8.80;99.90;;;;;;4909411;29;20506;-73
2023/10/15 06:30:14;;;;;;;4.25;0.82;;;8.80;99.90;;;;;;4908520;29;20445;-73
2023/10/15 06:32:47;;;;;;;2.20;1.30;;;8.80;99.90;;;;;;4922444;29;20059;-73
2023/10/15 06:35:18;;;;;;;7.78;1.23;;;8.90;99.90;;;;;;4925265;29;20028;-73
2023/10/15 06:37:51;;;;;;;5.13;0.80;;;8.90;99.90;;;;;;4927452;29;20032;-73
2023/10/15 06:40:17;;;;;;;8.60;2.22;;;9.00;99.90;;;;;;4922658;29;20043;-73
2023/10/15 06:42:44;;;;;;;7.28;1.02;;;9.00;99.90;;;;;;4923507;29;20028;-73
2023/10/15 06:45:10;;;;;;;7.57;1.58;;;9.10;99.90;;;;;;4921615;29;20389;-74
2023/10/15 06:47:37;;;;;;;4.20;0.75;;;9.10;99.90;;;;;;4925963;29;20035;-74
2023/10/15 06:50:07;;;;;;;0.88;0.47;;;9.20;99.90;;;;;;4917072;29;20043;-73
2023/10/15 06:52:39;;;;;;;2.58;0.80;;;9.20;99.90;;;;;;4927671;29;20035;-73
2023/10/15 06:55:07;;;;;;;1.42;0.88;;;9.30;99.90;;;;;;4919701;29;20040;-73
2023/10/15 06:57:38;;;;;;;5.47;1.05;;;9.40;99.90;;;;;;4930601;29;20065;-73
2023/10/15 07:00:08;;;;;;;1.40;0.70;;;9.40;99.90;;;;;;4912286;29;20036;-73
2023/10/15 07:02:33;;;;;;;1.55;0.60;;;9.50;99.90;;;;;;4923791;29;20063;-73
2023/10/15 07:05:02;;;;;;;5.28;1.58;;;9.60;99.90;;;;;;4924545;29;20769;-73
2023/10/15 07:07:29;;;;;;;1.92;1.42;;;9.60;99.90;;;;;;4933154;29;20484;-73
2023/10/15 07:09:55;;;;;;;5.50;0.75;;;9.70;99.90;;;;;;4919203;29;20067;-72
2023/10/15 07:12:22;;;;;;;3.42;0.95;;;9.90;99.90;;;;;;4922066;29;20123;-72
2023/10/15 07:14:48;;;;;;;0.88;0.68;;;9.90;99.90;;;;;;4922170;29;20036;-72
2023/10/15 07:17:15;;;;;;;4.15;1.00;;;10.10;99.90;;;;;;4931092;29;20123;-73
2023/10/15 07:19:41;;;;;;;4.20;1.13;;;10.20;99.90;;;;;;4918034;29;20048;-73
2023/10/15 07:22:07;;;;;;;8.48;1.13;;;10.30;99.90;;;;;;4929812;29;20035;-72
2023/10/15 07:24:33;;;;;;;6.90;1.23;;;10.40;99.90;;;;;;4924143;29;20029;-73
2023/10/15 07:27:01;;;;;;;1.48;0.93;;;10.30;99.90;;;;;;4928408;29;20491;-73
2023/10/15 07:29:28;;;;;;;8.27;1.08;;;10.50;99.90;;;;;;4916668;29;20092;-73
2023/10/15 07:31:54;;;;;;;10.43;1.67;;;10.60;99.90;;;;;;4929781;29;20087;-73
2023/10/15 07:34:22;;;;;;;2.85;1.13;;;10.60;99.90;;;;;;4921113;29;20029;-73
2023/10/15 07:36:51;;;;;;;0.70;0.57;;;10.60;99.90;;;;;;4927553;29;20031;-73
2023/10/15 07:39:17;;;;;;;3.60;0.88;;;10.60;99.90;;;;;;4921921;29;20120;-73
2023/10/15 07:41:45;;;;;;;2.03;0.75;;;10.60;99.90;;;;;;4943646;29;20031;-73
2023/10/15 07:44:13;;;;;;;3.63;0.60;;;10.60;99.90;;;;;;4929664;29;20028;-73
2023/10/15 07:46:39;;;;;;;2.08;1.00;;;10.70;99.90;;;;;;4927164;29;20046;-73
2023/10/15 07:49:05;;;;;;;4.68;1.10;;;10.80;99.90;;;;;;4932720;29;20032;-73
2023/10/15 07:51:31;;;;;;;4.53;1.20;;;10.90;99.90;;;;;;4929275;29;20032;-73
2023/10/15 07:53:56;;;;;;;4.18;1.33;;;11.00;99.90;;;;;;4919454;29;20036;-73
2023/10/15 07:56:22;;;;;;;8.05;1.60;;;11.00;99.90;;;;;;4926156;29;20483;-74
2023/10/15 07:58:50;;;;;;;2.00;0.88;;;11.00;99.90;;;;;;4927008;29;20122;-70
2023/10/15 08:01:16;;;;;;;5.63;0.68;;;11.10;99.90;;;;;;4924529;29;20032;-69
2023/10/15 08:03:43;;;;;;;3.80;1.63;;;11.10;99.90;;;;;;4926228;29;20028;-70
2023/10/15 08:06:09;;;;;;;2.15;0.80;;;11.20;99.90;;;;;;4924651;29;20032;-70
2023/10/15 08:08:35;;;;;;;4.72;0.60;;;11.20;99.90;;;;;;4931434;29;20063;-71
2023/10/15 08:11:02;;;;;;;4.13;0.68;;;11.30;99.90;;;;;;4925724;29;20044;-70
2023/10/15 08:13:28;;;;;;;3.85;0.82;;;11.30;99.90;;;;;;4948006;29;20440;-70
2023/10/15 08:15:54;;;;;;;0.98;0.60;;;11.40;99.90;;;;;;4925875;29;20044;-70
2023/10/15 08:18:20;;;;;;;0.65;0.30;;;11.40;99.90;;;;;;4918261;29;20031;-69
2023/10/15 08:20:46;;;;;;;5.43;1.27;;;11.50;99.90;;;;;;4929747;29;20144;-73
2023/10/15 08:23:13;;;;;;;2.63;1.15;;;11.40;99.90;;;;;;4929280;29;20110;-74
2023/10/15 08:25:39;;;;;;;1.25;0.73;;;11.50;99.90;;;;;;4924204;29;20032;-74
2023/10/15 08:28:05;;;;;;;8.85;1.98;;;11.50;99.90;;;;;;4918293;29;20362;-74
2023/10/15 08:30:36;;;;;;;1.17;0.38;;;11.50;99.90;;;;;;4920025;29;20044;-74
2023/10/15 08:33:03;;;;;;;0.93;0.40;;;11.60;99.90;;;;;;4934102;29;20055;-74
2023/10/15 08:35:29;;;;;;;0.10;0.10;;;11.80;99.90;;;;;;4924980;29;20032;-71
2023/10/15 08:37:59;;;;;;;4.47;1.33;;;11.80;99.90;;;;;;4932038;29;20396;-73
2023/10/15 08:40:26;;;;;;;1.60;0.57;;;12.00;99.90;;;;;;4923087;29;20035;-74
2023/10/15 08:43:34;;;;;;;2.85;0.98;;;12.20;99.90;;;;;;4935797;29;20119;-73
2023/10/15 08:46:09;;;;;;;3.50;1.45;;;12.30;99.90;;;;;;4918375;29;20126;-73
2023/10/15 08:48:40;;;;;;;2.53;1.15;;;12.30;99.90;;;;;;4935792;29;20043;-72
2023/10/15 08:51:13;;;;;;;2.15;0.82;;;12.30;99.90;;;;;;4921467;29;20512;-73
2023/10/15 08:53:41;;;;;;;0.52;0.40;;;12.30;99.90;;;;;;4935436;29;20039;-73
2023/10/15 08:56:09;;;;;;;2.90;0.55;;;12.50;99.90;;;;;;4920974;29;20500;-73
2023/10/15 08:58:36;;;;;;;0.82;0.40;;;12.50;99.90;;;;;;4935350;29;20043;-73
2023/10/15 09:01:04;;;;;;;0.73;0.40;;;12.50;99.90;;;;;;4928676;29;20475;-73
2023/10/15 09:03:30;;;;;;;1.40;0.43;;;12.40;99.90;;;;;;4934984;29;20106;-73
2023/10/15 09:05:56;;;;;;;1.30;0.52;;;12.40;99.90;;;;;;4928256;29;20114;-74
2023/10/15 09:08:23;;;;;;;4.22;0.73;;;12.50;99.90;;;;;;4934399;29;20119;-73
2023/10/15 09:10:52;;;;;;;1.88;0.60;;;12.30;99.90;;;;;;4928260;29;20050;-74
2023/10/15 09:13:21;;;;;;;0.50;0.30;;;12.30;99.90;;;;;;4923689;29;20039;-74
2023/10/15 09:15:52;;;;;;;4.53;0.60;;;12.50;99.90;;;;;;4909620;29;20220;-73
2023/10/15 09:18:18;;;;;;;1.15;0.63;;;12.60;99.90;;;;;;4928222;29;20043;-74
2023/10/15 09:20:46;;;;;;;2.75;0.57;;;12.80;99.90;;;;;;4926562;29;20043;-74
2023/10/15 09:23:12;;;;;;;1.65;0.43;;;12.90;99.90;;;;;;4934338;29;20110;-74
2023/10/15 09:25:41;;;;;;;1.75;0.90;;;12.60;99.90;;;;;;4921133;29;20493;-74
2023/10/15 09:28:06;;;;;;;0.70;0.38;;;12.40;99.90;;;;;;4936292;29;20051;-74
2023/10/15 09:30:32;;;;;;;1.77;0.63;;;12.50;99.90;;;;;;4921432;29;20043;-74
2023/10/15 09:32:58;;;;;;;1.00;0.60;;;12.50;99.90;;;;;;4928101;29;20433;-73
2023/10/15 09:35:25;;;;;;;1.30;0.52;;;12.40;99.90;;;;;;4918922;29;20172;-73
2023/10/15 09:37:53;;;;;;;2.53;0.70;;;12.20;99.90;;;;;;4927693;29;20106;-75
2023/10/15 09:40:32;;;;;;;1.80;0.77;;;12.10;99.90;;;;;;4918005;29;20032;-75
2023/10/15 09:42:59;;;;;;;4.20;0.95;;;12.20;99.90;;;;;;4931856;29;20040;-75
2023/10/15 09:45:25;;;;;;;4.10;0.60;;;12.50;99.90;;;;;;4920844;29;20038;-75
2023/10/15 09:47:57;;;;;;;4.80;0.40;;;12.80;99.90;;;;;;4922298;29;20495;-75
2023/10/15 09:50:27;;;;;;;3.50;0.73;;;13.10;99.90;;;;;;4909156;29;20044;-76
2023/10/15 09:52:56;;;;;;;5.95;0.52;;;13.10;99.90;;;;;;4927841;29;20044;-75
2023/10/15 09:55:27;;;;;;;2.33;0.60;;;13.10;99.90;;;;;;4922028;29;20115;-75
2023/10/15 09:57:55;;;;;;;;;;;13.30;99.40;;;;;;4925512;29;20043;-75
2023/10/15 10:03:30;;;;;;;0.93;0.57;;;13.60;98.30;;;;;;4926578;29;20032;-75
2023/10/15 10:06:50;;;;;;;1.50;0.38;;;13.90;98.10;;;;;;4925778;29;20613;-75
2023/10/15 10:09:40;;;;;;;3.42;0.52;;;13.80;97.50;;;;;;4929740;29;20036;-75
2023/10/15 10:12:43;;;;;;;1.75;0.57;;;13.90;97.50;;;;;;4927302;29;20031;-75
2023/10/15 10:15:28;;;;;;;7.90;0.77;;;14.40;97.10;;;;;;4916612;29;20037;-75
2023/10/15 10:17:55;;;;;;;0.70;0.30;;;14.50;96.50;;;;;;4931106;29;20074;-76
2023/10/15 10:20:31;;;;;;;0.80;0.30;;;14.80;95.90;;;;;;4918372;29;20074;-75
2023/10/15 10:23:02;;;;;;;1.95;0.73;;;15.00;95.80;;;;;;4926529;29;20389;-76
2023/10/15 10:25:42;;;;;;;1.85;0.50;;;14.70;95.30;;;;;;4919699;29;20054;-76
2023/10/15 10:28:20;;;;;;;4.60;0.63;;;14.30;95.90;;;;;;4934400;29;20028;-75
2023/10/15 10:30:54;;;;;;;1.75;0.55;;;14.00;96.50;;;;;;4925308;29;20032;-75
2023/10/15 10:33:44;;;;;;;7.18;0.52;;;13.50;96.30;;;;;;4917850;29;20046;-75
2023/10/15 10:36:17;;;;;;;3.10;0.28;;;13.10;96.80;;;;;;4916515;29;20040;-75
2023/10/15 10:39:13;;;;;;;1.65;0.25;;;12.80;97.00;;;;;;4934332;29;20122;-75
2023/10/15 10:41:50;;;;;;;1.67;0.40;;;12.70;97.40;;;;;;4916620;29;20032;-75
2023/10/15 10:44:24;;;;;;;0.95;0.50;;;12.60;97.90;;;;;;4936252;29;20031;-75
2023/10/15 10:46:52;;;;;;;3.13;0.20;;;12.50;98.20;;;;;;4930705;29;20452;-76
2023/10/15 10:49:28;;;;;;;0.90;0.40;;;12.30;98.40;;;;;;4930267;29;20115;-75
2023/10/15 10:52:14;;;;;;;0.82;0.50;;;12.20;98.80;;;;;;4930974;29;20039;-75
2023/10/15 10:54:40;;;;;;;3.47;1.33;;;12.40;98.60;;;;;;4937883;29;20142;-75
2023/10/15 10:57:08;;;;;;;0.38;0.13;;;12.70;98.30;;;;;;4930782;29;20036;-76
2023/10/15 10:59:41;;;;;;;3.30;0.40;;;13.10;97.70;;;;;;4914167;29;20106;-76
2023/10/15 11:02:13;;;;;;;0.85;0.43;;;13.20;97.10;;;;;;4915717;29;20100;-76
2023/10/15 11:04:42;;;;;;;4.32;0.75;;;13.20;97.20;;;;;;4905032;29;20059;-76
2023/10/15 11:07:10;;;;;;;0.90;0.35;;;15.00;95.30;;;;;;4914452;29;20107;-76
2023/10/15 11:09:39;;;;;;;2.85;0.40;;;16.90;93.60;;;;;;4921750;29;20036;-74
2023/10/15 11:12:12;;;;;;;0.30;0.20;;;18.60;89.90;;;;;;4922090;29;20110;-75
2023/10/15 11:14:39;;;;;;;2.97;0.57;;;19.50;81.80;;;;;;4914483;29;20492;-75
2023/10/15 11:17:07;;;;;;;1.20;0.20;;;18.80;79.70;;;;;;4916220;29;20044;-72
2023/10/15 11:19:34;;;;;;;1.75;0.52;;;19.00;78.10;;;;;;4913380;29;20043;-72
2023/10/15 11:22:01;;;;;;;2.45;0.55;;;19.20;76.90;;;;;;4929381;29;20045;-73
2023/10/15 11:24:27;;;;;;;4.57;0.30;;;20.20;76.10;;;;;;4897563;29;20143;-74
2023/10/15 11:26:58;;;;;;;1.65;0.50;;;20.40;74.80;;;;;;4929658;29;20032;-73
2023/10/15 11:29:25;;;;;;;1.50;0.30;;;20.20;74.30;;;;;;4914668;29;20860;-73
2023/10/15 11:31:57;;;;;;;1.63;0.70;;;21.20;70.70;;;;;;4929291;29;20067;-72
2023/10/15 11:34:25;;;;;;;5.40;0.60;;;19.70;69.10;;;;;;4912484;29;20040;-72
2023/10/15 11:36:57;;;;;;;0.70;0.28;;;18.20;70.90;;;;;;4914666;29;20036;-69
2023/10/15 11:39:42;;;;;;;0.90;0.43;;;18.00;70.00;;;;;;4912557;29;20048;-69
2023/10/15 11:42:08;;;;;;;0.75;0.10;;;18.40;70.30;;;;;;4928047;29;20043;-68
2023/10/15 11:44:43;;;;;;;0.85;0.30;;;18.10;71.20;;;;;;4915224;29;20032;-69
2023/10/15 11:47:11;;;;;;;0.60;0.10;;;18.70;72.10;;;;;;4928754;29;20028;-69
2023/10/15 11:49:38;;;;;;;2.47;0.40;;;18.00;73.60;;;;;;4914009;29;20047;-68
2023/10/15 11:52:11;;;;;;;0.20;0.10;;;17.80;74.40;;;;;;4929269;29;20036;-68
2023/10/15 11:54:51;;;;;;;0.47;0.30;;;16.90;75.20;;;;;;4920735;29;20040;-68
2023/10/15 11:57:25;;;;;;;1.67;0.57;;;15.90;77.90;;;;;;4929885;29;20067;-68
2023/10/15 11:59:52;;;;;;;0.63;0.20;;;15.20;80.80;;;;;;4914291;29;20036;-69
2023/10/15 12:02:18;;;;;;;0.10;0.10;;;16.20;79.10;;;;;;4898695;29;20039;-71
2023/10/15 12:04:44;;;;;;;0.05;0.05;;;17.20;75.80;;;;;;4912820;29;20036;-70
2023/10/15 12:07:21;;;;;;;0.20;0.10;;;18.60;72.80;;;;;;4917463;29;20537;-70
2023/10/15 12:09:48;;;;;;;1.50;0.35;;;20.00;70.20;;;;;;4899821;29;20074;-70
2023/10/15 12:12:15;;;;;;;1.83;0.60;;;21.50;66.50;;;;;;4915387;29;20504;-70
2023/10/15 12:14:41;;;;;;;0.90;0.25;;;22.30;64.60;;;;;;4912278;29;22200;-71
2023/10/15 12:17:07;;;;;;;0.25;0.10;;;21.80;61.60;;;;;;4911012;29;20032;-70
2023/10/15 12:19:32;;;;;;;2.60;0.20;;;20.40;62.40;;;;;;4898877;29;20040;-70
2023/10/15 12:21:58;;;;;;;0.95;0.45;;;19.60;61.00;;;;;;4898257;29;20062;-70
2023/10/15 12:24:27;;;;;;;0.70;0.20;;;17.60;64.40;;;;;;4900753;29;20663;-70
2023/10/15 12:26:53;;;;;;;1.38;0.43;;;16.40;68.80;;;;;;4924696;29;20044;-74
2023/10/15 12:29:28;;;;;;;2.70;0.17;;;15.40;72.50;;;;;;4912228;29;20497;-70
2023/10/15 12:31:57;;;;;;;0.95;0.50;;;16.20;71.30;;;;;;4921196;29;20071;-70
2023/10/15 12:34:24;;;;;;;0.40;0.28;;;17.50;69.70;;;;;;4918981;29;20044;-70
2023/10/15 12:36:50;;;;;;;2.15;0.50;;;19.40;65.20;;;;;;4898134;29;20059;-70
2023/10/15 12:39:15;;;;;;;0.98;0.20;;;19.70;61.50;;;;;;4900419;29;20063;-70
2023/10/15 12:41:41;;;;;;;0.55;0.20;;;19.90;59.50;;;;;;4901090;29;20107;-70
2023/10/15 12:44:11;;;;;;;0.47;0.28;;;21.30;57.50;;;;;;4902345;29;20175;-70
2023/10/15 12:46:37;;;;;;;1.45;0.10;;;21.40;56.80;;;;;;4929434;29;20038;-70
2023/10/15 12:49:03;;;;;;;0.75;0.30;;;21.10;55.50;;;;;;4925007;29;20185;-70
2023/10/15 12:51:30;;;;;;;0.63;0.32;;;21.60;55.80;;;;;;4903779;29;20079;-70
2023/10/15 12:53:56;;;;;;;0.90;0.22;;;22.50;54.00;;;;;;4897618;29;20110;-70
2023/10/15 12:56:22;;;;;;;1.45;0.22;;;22.30;53.20;;;;;;4898411;29;20082;-70
2023/10/15 12:58:49;;;;;;;0.43;0.10;;;21.20;52.50;;;;;;4900423;29;20084;-70
2023/10/15 13:01:20;;;;;;;2.10;0.50;;;19.50;54.50;;;;;;4898317;29;20047;-69
2023/10/15 13:03:49;;;;;;;2.38;0.93;;;17.70;62.80;;;;;;4902775;29;20029;-69
2023/10/15 13:06:21;;;;;;;0.98;0.22;;;16.10;72.00;;;;;;4924865;29;20142;-69
2023/10/15 13:08:47;;;;;;;0.40;0.20;;;15.10;78.10;;;;;;4903197;29;20409;-69
2023/10/15 13:11:13;;;;;;;0.90;0.47;;;14.10;83.50;;;;;;4903543;29;20032;-69
2023/10/15 13:13:39;;;;;;;4.43;0.32;;;13.50;87.80;;;;;;4903206;29;20076;-69